sensor_id;sensor_type;location;lat;lon;timestamp;P1;durP1;ratioP1;P2;durP2;ratioP2
67902;SDS011;54708;43.612;1.568;2024-02-21T00:01:03;16.42;;;9.45;;
67902;SDS011;54708;43.612;1.568;2024-02-21T00:03:29;16.52;;;10.05;;
67902;SDS011;54708;43.612;1.568;2024-02-21T00:05:54;23.77;;;11.88;;
67902;SDS011;54708;43.612;1.568;2024-02-21T00:08:19;23.23;;;12.35;;
67902;SDS011;54708;43.612;1.568;2024-02-21T00:10:45;20.83;;;10.95;;
67902;SDS011;54708;43.612;1.568;2024-02-21T00:13:10;19.33;;;9.60;;
67902;SDS011;54708;43.612;1.568;2024-02-21T00:15:35;27.80;;;11.32;;
67902;SDS011;54708;43.612;1.568;2024-02-21T00:18:01;23.60;;;12.52;;
67902;SDS011;54708;43.612;1.568;2024-02-21T00:20:26;15.98;;;12.00;;
67902;SDS011;54708;43.612;1.568;2024-02-21T00:22:51;20.42;;;12.50;;
67902;SDS011;54708;43.612;1.568;2024-02-21T00:25:17;18.58;;;12.05;;
67902;SDS011;54708;43.612;1.568;2024-02-21T00:27:43;23.33;;;12.18;;
67902;SDS011;54708;43.612;1.568;2024-02-21T00:30:08;13.57;;;9.20;;
67902;SDS011;54708;43.612;1.568;2024-02-21T00:32:34;13.35;;;8.95;;
67902;SDS011;54708;43.612;1.568;2024-02-21T00:35:00;17.48;;;8.70;;
67902;SDS011;54708;43.612;1.568;2024-02-21T00:37:26;16.58;;;8.77;;
67902;SDS011;54708;43.612;1.568;2024-02-21T00:39:51;16.63;;;8.20;;
67902;SDS011;54708;43.612;1.568;2024-02-21T00:42:18;9.80;;;6.72;;
67902;SDS011;54708;43.612;1.568;2024-02-21T00:44:43;14.23;;;7.00;;
67902;SDS011;54708;43.612;1.568;2024-02-21T00:47:09;19.60;;;7.18;;
67902;SDS011;54708;43.612;1.568;2024-02-21T00:49:35;14.10;;;7.43;;
67902;SDS011;54708;43.612;1.568;2024-02-21T00:52:00;11.27;;;6.97;;
67902;SDS011;54708;43.612;1.568;2024-02-21T00:54:26;11.50;;;6.80;;
67902;SDS011;54708;43.612;1.568;2024-02-21T00:56:51;13.38;;;8.23;;
67902;SDS011;54708;43.612;1.568;2024-02-21T00:59:16;22.00;;;10.15;;
67902;SDS011;54708;43.612;1.568;2024-02-21T01:01:42;17.77;;;9.32;;
67902;SDS011;54708;43.612;1.568;2024-02-21T01:04:08;13.45;;;9.55;;
67902;SDS011;54708;43.612;1.568;2024-02-21T01:06:34;20.08;;;9.05;;
67902;SDS011;54708;43.612;1.568;2024-02-21T01:08:59;23.02;;;10.15;;
67902;SDS011;54708;43.612;1.568;2024-02-21T01:11:25;20.65;;;10.52;;
67902;SDS011;54708;43.612;1.568;2024-02-21T01:13:50;24.15;;;12.13;;
67902;SDS011;54708;43.612;1.568;2024-02-21T01:16:15;18.52;;;9.45;;
67902;SDS011;54708;43.612;1.568;2024-02-21T01:18:41;14.85;;;9.27;;
67902;SDS011;54708;43.612;1.568;2024-02-21T01:21:06;16.33;;;9.20;;
67902;SDS011;54708;43.612;1.568;2024-02-21T01:23:33;14.65;;;9.02;;
67902;SDS011;54708;43.612;1.568;2024-02-21T01:25:59;14.43;;;7.95;;
67902;SDS011;54708;43.612;1.568;2024-02-21T01:28:25;11.38;;;7.47;;
67902;SDS011;54708;43.612;1.568;2024-02-21T01:30:50;15.65;;;7.97;;
67902;SDS011;54708;43.612;1.568;2024-02-21T01:33:16;15.02;;;7.75;;
67902;SDS011;54708;43.612;1.568;2024-02-21T01:35:42;12.95;;;7.78;;
67902;SDS011;54708;43.612;1.568;2024-02-21T01:38:07;18.52;;;8.20;;
67902;SDS011;54708;43.612;1.568;2024-02-21T01:40:33;17.85;;;8.10;;
67902;SDS011;54708;43.612;1.568;2024-02-21T01:42:58;13.32;;;7.43;;
67902;SDS011;54708;43.612;1.568;2024-02-21T01:45:23;13.00;;;7.10;;
67902;SDS011;54708;43.612;1.568;2024-02-21T01:47:49;12.85;;;7.03;;
67902;SDS011;54708;43.612;1.568;2024-02-21T01:50:15;14.82;;;7.82;;
67902;SDS011;54708;43.612;1.568;2024-02-21T01:52:40;13.35;;;7.53;;
67902;SDS011;54708;43.612;1.568;2024-02-21T01:55:08;11.70;;;7.30;;
67902;SDS011;54708;43.612;1.568;2024-02-21T01:57:35;11.18;;;6.50;;
67902;SDS011;54708;43.612;1.568;2024-02-21T02:00:01;12.35;;;6.85;;
67902;SDS011;54708;43.612;1.568;2024-02-21T02:02:27;11.70;;;6.45;;
67902;SDS011;54708;43.612;1.568;2024-02-21T02:04:52;12.70;;;6.50;;
67902;SDS011;54708;43.612;1.568;2024-02-21T02:07:17;14.45;;;6.85;;
67902;SDS011;54708;43.612;1.568;2024-02-21T02:09:43;15.35;;;6.60;;
67902;SDS011;54708;43.612;1.568;2024-02-21T02:12:08;11.77;;;6.55;;
67902;SDS011;54708;43.612;1.568;2024-02-21T02:14:34;16.10;;;7.57;;
67902;SDS011;54708;43.612;1.568;2024-02-21T02:16:59;13.50;;;7.45;;
67902;SDS011;54708;43.612;1.568;2024-02-21T02:19:24;17.30;;;7.95;;
67902;SDS011;54708;43.612;1.568;2024-02-21T02:21:50;14.40;;;7.20;;
67902;SDS011;54708;43.612;1.568;2024-02-21T02:24:20;13.18;;;6.93;;
67902;SDS011;54708;43.612;1.568;2024-02-21T02:26:46;12.85;;;7.35;;
67902;SDS011;54708;43.612;1.568;2024-02-21T02:29:11;15.13;;;7.68;;
67902;SDS011;54708;43.612;1.568;2024-02-21T02:31:36;11.90;;;7.10;;
67902;SDS011;54708;43.612;1.568;2024-02-21T02:34:03;14.35;;;6.28;;
67902;SDS011;54708;43.612;1.568;2024-02-21T02:36:30;14.80;;;6.70;;
67902;SDS011;54708;43.612;1.568;2024-02-21T02:38:57;12.07;;;5.57;;
67902;SDS011;54708;43.612;1.568;2024-02-21T02:41:23;10.20;;;6.25;;
67902;SDS011;54708;43.612;1.568;2024-02-21T02:43:48;12.50;;;5.82;;
67902;SDS011;54708;43.612;1.568;2024-02-21T02:46:14;12.20;;;6.50;;
67902;SDS011;54708;43.612;1.568;2024-02-21T02:48:39;11.88;;;6.43;;
67902;SDS011;54708;43.612;1.568;2024-02-21T02:51:04;11.15;;;6.57;;
67902;SDS011;54708;43.612;1.568;2024-02-21T02:53:30;14.85;;;6.07;;
67902;SDS011;54708;43.612;1.568;2024-02-21T02:55:55;11.32;;;6.15;;
67902;SDS011;54708;43.612;1.568;2024-02-21T02:58:21;9.60;;;5.68;;
67902;SDS011;54708;43.612;1.568;2024-02-21T03:00:46;8.48;;;6.05;;
67902;SDS011;54708;43.612;1.568;2024-02-21T03:03:11;9.43;;;6.03;;
67902;SDS011;54708;43.612;1.568;2024-02-21T03:05:37;9.68;;;6.13;;
67902;SDS011;54708;43.612;1.568;2024-02-21T03:08:02;11.88;;;6.75;;
67902;SDS011;54708;43.612;1.568;2024-02-21T03:10:31;11.13;;;5.97;;
67902;SDS011;54708;43.612;1.568;2024-02-21T03:12:57;13.77;;;6.53;;
67902;SDS011;54708;43.612;1.568;2024-02-21T03:15:23;12.80;;;6.07;;
67902;SDS011;54708;43.612;1.568;2024-02-21T03:17:49;10.18;;;5.85;;
67902;SDS011;54708;43.612;1.568;2024-02-21T03:20:14;10.38;;;6.32;;
67902;SDS011;54708;43.612;1.568;2024-02-21T03:22:40;10.25;;;6.00;;
67902;SDS011;54708;43.612;1.568;2024-02-21T03:25:06;8.68;;;5.70;;
67902;SDS011;54708;43.612;1.568;2024-02-21T03:27:32;11.55;;;6.20;;
67902;SDS011;54708;43.612;1.568;2024-02-21T03:29:57;15.75;;;5.45;;
67902;SDS011;54708;43.612;1.568;2024-02-21T03:32:22;9.70;;;5.07;;
67902;SDS011;54708;43.612;1.568;2024-02-21T03:34:48;8.68;;;6.65;;
67902;SDS011;54708;43.612;1.568;2024-02-21T03:37:13;12.93;;;6.82;;
67902;SDS011;54708;43.612;1.568;2024-02-21T03:39:39;11.05;;;5.35;;
67902;SDS011;54708;43.612;1.568;2024-02-21T03:42:05;14.38;;;5.70;;
67902;SDS011;54708;43.612;1.568;2024-02-21T03:44:31;12.45;;;5.95;;
67902;SDS011;54708;43.612;1.568;2024-02-21T03:46:58;11.10;;;5.82;;
67902;SDS011;54708;43.612;1.568;2024-02-21T03:49:24;9.15;;;6.30;;
67902;SDS011;54708;43.612;1.568;2024-02-21T03:51:49;10.82;;;7.22;;
67902;SDS011;54708;43.612;1.568;2024-02-21T03:54:14;15.05;;;6.72;;
67902;SDS011;54708;43.612;1.568;2024-02-21T03:56:40;13.15;;;6.13;;
67902;SDS011;54708;43.612;1.568;2024-02-21T03:59:06;16.88;;;6.72;;
67902;SDS011;54708;43.612;1.568;2024-02-21T04:01:33;9.90;;;6.35;;
67902;SDS011;54708;43.612;1.568;2024-02-21T04:04:01;7.85;;;5.55;;
67902;SDS011;54708;43.612;1.568;2024-02-21T04:06:27;10.82;;;7.20;;
67902;SDS011;54708;43.612;1.568;2024-02-21T04:08:52;23.30;;;7.78;;
67902;SDS011;54708;43.612;1.568;2024-02-21T04:11:18;9.00;;;6.55;;
67902;SDS011;54708;43.612;1.568;2024-02-21T04:13:44;13.10;;;7.07;;
67902;SDS011;54708;43.612;1.568;2024-02-21T04:16:09;12.82;;;8.60;;
67902;SDS011;54708;43.612;1.568;2024-02-21T04:18:35;16.60;;;7.88;;
67902;SDS011;54708;43.612;1.568;2024-02-21T04:21:00;14.40;;;8.35;;
67902;SDS011;54708;43.612;1.568;2024-02-21T04:23:26;14.20;;;8.00;;
67902;SDS011;54708;43.612;1.568;2024-02-21T04:25:51;12.65;;;7.15;;
67902;SDS011;54708;43.612;1.568;2024-02-21T04:28:17;13.60;;;7.30;;
67902;SDS011;54708;43.612;1.568;2024-02-21T04:30:42;15.05;;;9.13;;
67902;SDS011;54708;43.612;1.568;2024-02-21T04:33:08;13.38;;;8.85;;
67902;SDS011;54708;43.612;1.568;2024-02-21T04:35:33;25.38;;;8.35;;
67902;SDS011;54708;43.612;1.568;2024-02-21T04:37:59;13.75;;;8.55;;
67902;SDS011;54708;43.612;1.568;2024-02-21T04:40:24;18.40;;;9.27;;
67902;SDS011;54708;43.612;1.568;2024-02-21T04:42:49;13.20;;;7.85;;
67902;SDS011;54708;43.612;1.568;2024-02-21T04:45:15;13.10;;;7.70;;
67902;SDS011;54708;43.612;1.568;2024-02-21T04:47:40;14.32;;;8.13;;
67902;SDS011;54708;43.612;1.568;2024-02-21T04:50:06;13.45;;;8.57;;
67902;SDS011;54708;43.612;1.568;2024-02-21T04:52:31;19.85;;;9.15;;
67902;SDS011;54708;43.612;1.568;2024-02-21T04:54:58;14.77;;;7.57;;
67902;SDS011;54708;43.612;1.568;2024-02-21T04:57:24;9.82;;;7.82;;
67902;SDS011;54708;43.612;1.568;2024-02-21T04:59:50;15.45;;;9.52;;
67902;SDS011;54708;43.612;1.568;2024-02-21T05:02:15;15.23;;;8.98;;
67902;SDS011;54708;43.612;1.568;2024-02-21T05:04:42;16.85;;;9.45;;
67902;SDS011;54708;43.612;1.568;2024-02-21T05:07:08;14.20;;;7.80;;
67902;SDS011;54708;43.612;1.568;2024-02-21T05:09:33;14.95;;;9.02;;
67902;SDS011;54708;43.612;1.568;2024-02-21T05:11:58;14.40;;;7.63;;
67902;SDS011;54708;43.612;1.568;2024-02-21T05:14:24;11.90;;;8.35;;
67902;SDS011;54708;43.612;1.568;2024-02-21T05:16:50;11.57;;;7.20;;
67902;SDS011;54708;43.612;1.568;2024-02-21T05:19:15;11.45;;;7.47;;
67902;SDS011;54708;43.612;1.568;2024-02-21T05:21:41;12.25;;;5.88;;
67902;SDS011;54708;43.612;1.568;2024-02-21T05:24:06;13.88;;;7.03;;
67902;SDS011;54708;43.612;1.568;2024-02-21T05:26:31;10.15;;;6.30;;
67902;SDS011;54708;43.612;1.568;2024-02-21T05:28:57;11.57;;;6.15;;
67902;SDS011;54708;43.612;1.568;2024-02-21T05:31:24;9.13;;;6.18;;
67902;SDS011;54708;43.612;1.568;2024-02-21T05:33:49;13.63;;;8.07;;
67902;SDS011;54708;43.612;1.568;2024-02-21T05:36:14;15.90;;;7.18;;
67902;SDS011;54708;43.612;1.568;2024-02-21T05:38:40;14.18;;;7.93;;
67902;SDS011;54708;43.612;1.568;2024-02-21T05:41:05;12.23;;;6.88;;
67902;SDS011;54708;43.612;1.568;2024-02-21T05:43:31;11.75;;;6.97;;
67902;SDS011;54708;43.612;1.568;2024-02-21T05:45:56;15.93;;;7.20;;
67902;SDS011;54708;43.612;1.568;2024-02-21T05:48:22;21.00;;;7.32;;
67902;SDS011;54708;43.612;1.568;2024-02-21T05:50:48;13.38;;;7.03;;
67902;SDS011;54708;43.612;1.568;2024-02-21T05:53:14;13.50;;;7.22;;
67902;SDS011;54708;43.612;1.568;2024-02-21T05:55:39;11.95;;;7.45;;
67902;SDS011;54708;43.612;1.568;2024-02-21T05:58:05;16.10;;;8.38;;
67902;SDS011;54708;43.612;1.568;2024-02-21T06:00:31;10.57;;;7.07;;
67902;SDS011;54708;43.612;1.568;2024-02-21T06:02:56;15.75;;;7.88;;
67902;SDS011;54708;43.612;1.568;2024-02-21T06:05:22;15.57;;;8.18;;
67902;SDS011;54708;43.612;1.568;2024-02-21T06:07:47;13.45;;;7.15;;
67902;SDS011;54708;43.612;1.568;2024-02-21T06:10:12;16.55;;;8.75;;
67902;SDS011;54708;43.612;1.568;2024-02-21T06:12:38;15.27;;;7.10;;
67902;SDS011;54708;43.612;1.568;2024-02-21T06:15:03;8.93;;;6.65;;
67902;SDS011;54708;43.612;1.568;2024-02-21T06:17:29;16.88;;;7.75;;
67902;SDS011;54708;43.612;1.568;2024-02-21T06:19:54;13.45;;;7.10;;
67902;SDS011;54708;43.612;1.568;2024-02-21T06:22:19;11.55;;;6.68;;
67902;SDS011;54708;43.612;1.568;2024-02-21T06:24:45;9.70;;;6.18;;
67902;SDS011;54708;43.612;1.568;2024-02-21T06:27:10;13.68;;;8.10;;
67902;SDS011;54708;43.612;1.568;2024-02-21T06:29:36;9.57;;;5.93;;
67902;SDS011;54708;43.612;1.568;2024-02-21T06:32:01;13.70;;;6.88;;
67902;SDS011;54708;43.612;1.568;2024-02-21T06:34:27;12.32;;;6.93;;
67902;SDS011;54708;43.612;1.568;2024-02-21T06:36:52;18.55;;;6.45;;
67902;SDS011;54708;43.612;1.568;2024-02-21T06:39:18;12.93;;;5.32;;
67902;SDS011;54708;43.612;1.568;2024-02-21T06:41:43;11.32;;;6.07;;
67902;SDS011;54708;43.612;1.568;2024-02-21T06:44:09;14.75;;;6.32;;
67902;SDS011;54708;43.612;1.568;2024-02-21T06:46:34;9.43;;;5.53;;
67902;SDS011;54708;43.612;1.568;2024-02-21T06:49:00;10.23;;;6.57;;
67902;SDS011;54708;43.612;1.568;2024-02-21T06:51:26;13.07;;;6.47;;
67902;SDS011;54708;43.612;1.568;2024-02-21T06:53:52;17.55;;;7.68;;
67902;SDS011;54708;43.612;1.568;2024-02-21T06:56:17;11.73;;;6.50;;
67902;SDS011;54708;43.612;1.568;2024-02-21T06:58:43;11.40;;;6.57;;
67902;SDS011;54708;43.612;1.568;2024-02-21T07:01:08;17.95;;;7.72;;
67902;SDS011;54708;43.612;1.568;2024-02-21T07:03:34;23.15;;;8.85;;
67902;SDS011;54708;43.612;1.568;2024-02-21T07:05:59;16.70;;;8.43;;
67902;SDS011;54708;43.612;1.568;2024-02-21T07:08:25;10.07;;;7.20;;
67902;SDS011;54708;43.612;1.568;2024-02-21T07:10:51;11.05;;;7.18;;
67902;SDS011;54708;43.612;1.568;2024-02-21T07:13:16;15.20;;;7.53;;
67902;SDS011;54708;43.612;1.568;2024-02-21T07:15:42;15.77;;;7.68;;
67902;SDS011;54708;43.612;1.568;2024-02-21T07:18:08;13.52;;;7.72;;
67902;SDS011;54708;43.612;1.568;2024-02-21T07:20:33;14.57;;;7.63;;
67902;SDS011;54708;43.612;1.568;2024-02-21T07:22:59;12.60;;;7.10;;
67902;SDS011;54708;43.612;1.568;2024-02-21T07:25:24;15.60;;;7.28;;
67902;SDS011;54708;43.612;1.568;2024-02-21T07:27:50;20.60;;;7.68;;
67902;SDS011;54708;43.612;1.568;2024-02-21T07:30:15;14.00;;;7.15;;
67902;SDS011;54708;43.612;1.568;2024-02-21T07:32:41;19.98;;;7.43;;
67902;SDS011;54708;43.612;1.568;2024-02-21T07:35:06;13.32;;;6.82;;
67902;SDS011;54708;43.612;1.568;2024-02-21T07:37:35;11.13;;;6.65;;
67902;SDS011;54708;43.612;1.568;2024-02-21T07:40:02;14.77;;;6.75;;
67902;SDS011;54708;43.612;1.568;2024-02-21T07:42:28;10.60;;;6.38;;
67902;SDS011;54708;43.612;1.568;2024-02-21T07:44:53;11.90;;;6.15;;
67902;SDS011;54708;43.612;1.568;2024-02-21T07:47:18;9.93;;;6.72;;
67902;SDS011;54708;43.612;1.568;2024-02-21T07:49:45;14.40;;;6.57;;
67902;SDS011;54708;43.612;1.568;2024-02-21T07:52:11;13.73;;;7.32;;
67902;SDS011;54708;43.612;1.568;2024-02-21T07:54:36;11.32;;;6.07;;
67902;SDS011;54708;43.612;1.568;2024-02-21T07:57:01;9.60;;;6.10;;
67902;SDS011;54708;43.612;1.568;2024-02-21T07:59:27;12.65;;;5.93;;
67902;SDS011;54708;43.612;1.568;2024-02-21T08:01:55;18.23;;;5.85;;
67902;SDS011;54708;43.612;1.568;2024-02-21T08:04:21;11.82;;;6.25;;
67902;SDS011;54708;43.612;1.568;2024-02-21T08:06:50;16.55;;;6.70;;
67902;SDS011;54708;43.612;1.568;2024-02-21T08:09:18;14.75;;;6.13;;
67902;SDS011;54708;43.612;1.568;2024-02-21T08:11:44;11.40;;;6.85;;
67902;SDS011;54708;43.612;1.568;2024-02-21T08:14:09;17.38;;;6.70;;
67902;SDS011;54708;43.612;1.568;2024-02-21T08:16:34;14.88;;;6.45;;
67902;SDS011;54708;43.612;1.568;2024-02-21T08:19:00;14.05;;;6.93;;
67902;SDS011;54708;43.612;1.568;2024-02-21T08:21:27;9.70;;;5.68;;
67902;SDS011;54708;43.612;1.568;2024-02-21T08:23:52;17.98;;;6.53;;
67902;SDS011;54708;43.612;1.568;2024-02-21T08:26:19;12.52;;;7.05;;
67902;SDS011;54708;43.612;1.568;2024-02-21T08:28:44;9.00;;;6.38;;
67902;SDS011;54708;43.612;1.568;2024-02-21T08:31:10;10.35;;;6.65;;
67902;SDS011;54708;43.612;1.568;2024-02-21T08:33:35;9.48;;;6.43;;
67902;SDS011;54708;43.612;1.568;2024-02-21T08:36:00;9.00;;;6.68;;
67902;SDS011;54708;43.612;1.568;2024-02-21T08:38:26;8.40;;;5.07;;
67902;SDS011;54708;43.612;1.568;2024-02-21T08:40:51;11.60;;;6.43;;
67902;SDS011;54708;43.612;1.568;2024-02-21T08:43:16;10.75;;;6.15;;
67902;SDS011;54708;43.612;1.568;2024-02-21T08:45:42;10.20;;;5.97;;
67902;SDS011;54708;43.612;1.568;2024-02-21T08:48:07;17.35;;;6.03;;
67902;SDS011;54708;43.612;1.568;2024-02-21T08:50:33;14.35;;;6.78;;
67902;SDS011;54708;43.612;1.568;2024-02-21T08:52:58;13.43;;;7.03;;
67902;SDS011;54708;43.612;1.568;2024-02-21T08:55:24;15.00;;;7.43;;
67902;SDS011;54708;43.612;1.568;2024-02-21T08:57:49;8.30;;;5.20;;
67902;SDS011;54708;43.612;1.568;2024-02-21T09:00:15;12.05;;;5.65;;
67902;SDS011;54708;43.612;1.568;2024-02-21T09:02:41;13.77;;;7.25;;
67902;SDS011;54708;43.612;1.568;2024-02-21T09:05:09;9.50;;;4.38;;
67902;SDS011;54708;43.612;1.568;2024-02-21T09:07:35;8.15;;;6.28;;
67902;SDS011;54708;43.612;1.568;2024-02-21T09:10:01;10.00;;;4.82;;
67902;SDS011;54708;43.612;1.568;2024-02-21T09:12:26;16.75;;;5.47;;
67902;SDS011;54708;43.612;1.568;2024-02-21T09:14:52;15.70;;;4.20;;
67902;SDS011;54708;43.612;1.568;2024-02-21T09:17:17;8.82;;;4.90;;
67902;SDS011;54708;43.612;1.568;2024-02-21T09:19:43;5.55;;;4.18;;
67902;SDS011;54708;43.612;1.568;2024-02-21T09:22:09;8.90;;;4.22;;
67902;SDS011;54708;43.612;1.568;2024-02-21T09:24:34;8.02;;;3.75;;
67902;SDS011;54708;43.612;1.568;2024-02-21T09:26:59;9.25;;;4.40;;
67902;SDS011;54708;43.612;1.568;2024-02-21T09:29:25;8.43;;;4.22;;
67902;SDS011;54708;43.612;1.568;2024-02-21T09:31:50;9.38;;;4.85;;
67902;SDS011;54708;43.612;1.568;2024-02-21T09:34:15;9.68;;;4.72;;
67902;SDS011;54708;43.612;1.568;2024-02-21T09:36:41;9.70;;;3.40;;
67902;SDS011;54708;43.612;1.568;2024-02-21T09:39:06;11.52;;;3.85;;
67902;SDS011;54708;43.612;1.568;2024-02-21T09:41:32;8.25;;;4.35;;
67902;SDS011;54708;43.612;1.568;2024-02-21T09:43:59;5.65;;;3.50;;
67902;SDS011;54708;43.612;1.568;2024-02-21T09:46:28;12.40;;;4.07;;
67902;SDS011;54708;43.612;1.568;2024-02-21T09:51:51;7.78;;;4.07;;
67902;SDS011;54708;43.612;1.568;2024-02-21T09:54:18;10.70;;;4.45;;
67902;SDS011;54708;43.612;1.568;2024-02-21T09:56:45;8.13;;;4.43;;
67902;SDS011;54708;43.612;1.568;2024-02-21T09:59:12;8.65;;;4.18;;
67902;SDS011;54708;43.612;1.568;2024-02-21T10:01:41;15.65;;;5.47;;
67902;SDS011;54708;43.612;1.568;2024-02-21T10:04:07;7.85;;;3.95;;
67902;SDS011;54708;43.612;1.568;2024-02-21T10:06:33;6.55;;;3.45;;
67902;SDS011;54708;43.612;1.568;2024-02-21T10:08:59;5.43;;;3.15;;
67902;SDS011;54708;43.612;1.568;2024-02-21T10:11:25;5.47;;;4.35;;
67902;SDS011;54708;43.612;1.568;2024-02-21T10:13:51;12.45;;;5.65;;
67902;SDS011;54708;43.612;1.568;2024-02-21T10:16:16;5.60;;;3.40;;
67902;SDS011;54708;43.612;1.568;2024-02-21T10:18:41;12.10;;;3.03;;
67902;SDS011;54708;43.612;1.568;2024-02-21T10:21:07;7.32;;;2.78;;
67902;SDS011;54708;43.612;1.568;2024-02-21T10:23:43;7.47;;;2.80;;
67902;SDS011;54708;43.612;1.568;2024-02-21T10:26:09;5.68;;;3.05;;
67902;SDS011;54708;43.612;1.568;2024-02-21T10:28:35;9.82;;;2.75;;
67902;SDS011;54708;43.612;1.568;2024-02-21T10:31:00;10.27;;;2.10;;
67902;SDS011;54708;43.612;1.568;2024-02-21T10:33:26;4.15;;;1.83;;
67902;SDS011;54708;43.612;1.568;2024-02-21T10:35:53;7.63;;;2.67;;
67902;SDS011;54708;43.612;1.568;2024-02-21T10:38:18;5.82;;;1.83;;
67902;SDS011;54708;43.612;1.568;2024-02-21T10:40:44;8.90;;;2.55;;
67902;SDS011;54708;43.612;1.568;2024-02-21T10:43:12;2.67;;;1.50;;
67902;SDS011;54708;43.612;1.568;2024-02-21T10:45:39;15.43;;;1.98;;
67902;SDS011;54708;43.612;1.568;2024-02-21T10:48:15;7.30;;;1.98;;
67902;SDS011;54708;43.612;1.568;2024-02-21T10:50:57;1.52;;;1.30;;
67902;SDS011;54708;43.612;1.568;2024-02-21T10:56:45;3.15;;;1.52;;
67902;SDS011;54708;43.612;1.568;2024-02-21T10:58:56;3.10;;;1.50;;
67902;SDS011;54708;43.612;1.568;2024-02-21T11:01:23;4.90;;;1.70;;
67902;SDS011;54708;43.612;1.568;2024-02-21T11:03:49;5.57;;;3.45;;
67902;SDS011;54708;43.612;1.568;2024-02-21T11:06:16;2.60;;;1.42;;
67902;SDS011;54708;43.612;1.568;2024-02-21T11:08:42;1.80;;;1.50;;
67902;SDS011;54708;43.612;1.568;2024-02-21T11:11:07;2.78;;;1.40;;
67902;SDS011;54708;43.612;1.568;2024-02-21T11:13:36;3.28;;;2.08;;
67902;SDS011;54708;43.612;1.568;2024-02-21T11:16:06;3.47;;;1.83;;
67902;SDS011;54708;43.612;1.568;2024-02-21T11:18:32;4.28;;;1.98;;
67902;SDS011;54708;43.612;1.568;2024-02-21T11:20:58;2.72;;;1.48;;
67902;SDS011;54708;43.612;1.568;2024-02-21T11:23:26;2.92;;;1.30;;
67902;SDS011;54708;43.612;1.568;2024-02-21T11:25:52;2.70;;;1.60;;
67902;SDS011;54708;43.612;1.568;2024-02-21T11:28:25;4.40;;;1.40;;
67902;SDS011;54708;43.612;1.568;2024-02-21T11:33:16;2.78;;;1.25;;
67902;SDS011;54708;43.612;1.568;2024-02-21T11:35:41;2.30;;;1.42;;
67902;SDS011;54708;43.612;1.568;2024-02-21T11:38:07;4.80;;;2.13;;
67902;SDS011;54708;43.612;1.568;2024-02-21T11:40:46;3.95;;;1.55;;
67902;SDS011;54708;43.612;1.568;2024-02-21T11:43:11;4.45;;;1.42;;
67902;SDS011;54708;43.612;1.568;2024-02-21T11:45:37;2.95;;;1.70;;
67902;SDS011;54708;43.612;1.568;2024-02-21T11:48:04;3.15;;;1.10;;
67902;SDS011;54708;43.612;1.568;2024-02-21T11:50:30;1.95;;;1.30;;
67902;SDS011;54708;43.612;1.568;2024-02-21T11:52:56;2.58;;;1.00;;
67902;SDS011;54708;43.612;1.568;2024-02-21T11:55:22;2.42;;;1.27;;
67902;SDS011;54708;43.612;1.568;2024-02-21T11:57:48;3.90;;;1.30;;
67902;SDS011;54708;43.612;1.568;2024-02-21T12:00:14;4.18;;;1.33;;
67902;SDS011;54708;43.612;1.568;2024-02-21T12:02:45;4.38;;;1.40;;
67902;SDS011;54708;43.612;1.568;2024-02-21T12:05:11;3.17;;;1.40;;
67902;SDS011;54708;43.612;1.568;2024-02-21T12:07:37;3.90;;;1.17;;
67902;SDS011;54708;43.612;1.568;2024-02-21T12:10:12;1.98;;;1.30;;
67902;SDS011;54708;43.612;1.568;2024-02-21T12:12:38;5.45;;;1.90;;
67902;SDS011;54708;43.612;1.568;2024-02-21T12:15:04;1.77;;;1.20;;
67902;SDS011;54708;43.612;1.568;2024-02-21T12:17:30;3.38;;;1.50;;
67902;SDS011;54708;43.612;1.568;2024-02-21T12:19:58;4.43;;;1.50;;
67902;SDS011;54708;43.612;1.568;2024-02-21T12:22:24;1.58;;;1.40;;
67902;SDS011;54708;43.612;1.568;2024-02-21T12:24:50;2.75;;;1.42;;
67902;SDS011;54708;43.612;1.568;2024-02-21T12:27:15;4.35;;;1.80;;
67902;SDS011;54708;43.612;1.568;2024-02-21T12:29:41;1.70;;;1.60;;
67902;SDS011;54708;43.612;1.568;2024-02-21T12:32:06;1.60;;;1.50;;
67902;SDS011;54708;43.612;1.568;2024-02-21T12:34:31;1.73;;;1.30;;
67902;SDS011;54708;43.612;1.568;2024-02-21T12:36:57;2.92;;;1.45;;
67902;SDS011;54708;43.612;1.568;2024-02-21T12:39:23;3.85;;;1.48;;
67902;SDS011;54708;43.612;1.568;2024-02-21T12:41:48;1.70;;;1.30;;
67902;SDS011;54708;43.612;1.568;2024-02-21T12:44:14;3.50;;;1.30;;
67902;SDS011;54708;43.612;1.568;2024-02-21T12:46:41;2.30;;;1.40;;
67902;SDS011;54708;43.612;1.568;2024-02-21T12:49:06;2.13;;;1.58;;
67902;SDS011;54708;43.612;1.568;2024-02-21T12:51:33;2.80;;;1.30;;
67902;SDS011;54708;43.612;1.568;2024-02-21T12:53:59;3.88;;;2.15;;
67902;SDS011;54708;43.612;1.568;2024-02-21T12:56:24;3.60;;;1.65;;
67902;SDS011;54708;43.612;1.568;2024-02-21T12:58:52;1.77;;;1.48;;
67902;SDS011;54708;43.612;1.568;2024-02-21T13:01:18;3.63;;;1.73;;
67902;SDS011;54708;43.612;1.568;2024-02-21T13:03:43;3.33;;;1.73;;
67902;SDS011;54708;43.612;1.568;2024-02-21T13:06:08;3.25;;;1.50;;
67902;SDS011;54708;43.612;1.568;2024-02-21T13:08:37;6.55;;;2.08;;
67902;SDS011;54708;43.612;1.568;2024-02-21T13:11:03;4.03;;;1.80;;
67902;SDS011;54708;43.612;1.568;2024-02-21T13:13:29;2.40;;;2.20;;
67902;SDS011;54708;43.612;1.568;2024-02-21T13:15:54;3.17;;;1.95;;
67902;SDS011;54708;43.612;1.568;2024-02-21T13:18:20;2.35;;;1.55;;
67902;SDS011;54708;43.612;1.568;2024-02-21T13:20:45;4.70;;;1.25;;
67902;SDS011;54708;43.612;1.568;2024-02-21T13:23:10;2.92;;;1.38;;
67902;SDS011;54708;43.612;1.568;2024-02-21T13:25:36;1.40;;;1.30;;
67902;SDS011;54708;43.612;1.568;2024-02-21T13:28:01;4.25;;;1.50;;
67902;SDS011;54708;43.612;1.568;2024-02-21T13:30:28;2.53;;;1.33;;
67902;SDS011;54708;43.612;1.568;2024-02-21T13:32:53;6.55;;;1.65;;
67902;SDS011;54708;43.612;1.568;2024-02-21T13:35:19;4.97;;;1.58;;
67902;SDS011;54708;43.612;1.568;2024-02-21T13:37:45;3.50;;;1.83;;
67902;SDS011;54708;43.612;1.568;2024-02-21T13:40:11;5.28;;;1.08;;
67902;SDS011;54708;43.612;1.568;2024-02-21T13:42:38;4.22;;;1.88;;
67902;SDS011;54708;43.612;1.568;2024-02-21T13:45:04;2.10;;;1.33;;
67902;SDS011;54708;43.612;1.568;2024-02-21T13:47:33;4.88;;;1.60;;
67902;SDS011;54708;43.612;1.568;2024-02-21T13:49:59;4.43;;;1.75;;
67902;SDS011;54708;43.612;1.568;2024-02-21T13:52:24;3.85;;;1.45;;
67902;SDS011;54708;43.612;1.568;2024-02-21T13:54:53;4.53;;;1.40;;
67902;SDS011;54708;43.612;1.568;2024-02-21T13:57:18;4.03;;;1.33;;
67902;SDS011;54708;43.612;1.568;2024-02-21T13:59:43;2.13;;;1.92;;
67902;SDS011;54708;43.612;1.568;2024-02-21T14:02:09;2.15;;;1.27;;
67902;SDS011;54708;43.612;1.568;2024-02-21T14:04:34;3.08;;;1.40;;
67902;SDS011;54708;43.612;1.568;2024-02-21T14:07:00;2.85;;;1.00;;
67902;SDS011;54708;43.612;1.568;2024-02-21T14:09:26;2.58;;;1.20;;
67902;SDS011;54708;43.612;1.568;2024-02-21T14:11:51;3.10;;;1.40;;
67902;SDS011;54708;43.612;1.568;2024-02-21T14:14:17;3.28;;;1.55;;
67902;SDS011;54708;43.612;1.568;2024-02-21T14:16:42;3.20;;;1.13;;
67902;SDS011;54708;43.612;1.568;2024-02-21T14:19:07;2.50;;;1.38;;
67902;SDS011;54708;43.612;1.568;2024-02-21T14:21:34;5.05;;;1.45;;
67902;SDS011;54708;43.612;1.568;2024-02-21T14:24:03;1.92;;;1.50;;
67902;SDS011;54708;43.612;1.568;2024-02-21T14:26:29;2.10;;;1.30;;
67902;SDS011;54708;43.612;1.568;2024-02-21T14:28:56;2.00;;;1.23;;
67902;SDS011;54708;43.612;1.568;2024-02-21T14:31:22;2.95;;;1.40;;
67902;SDS011;54708;43.612;1.568;2024-02-21T14:33:47;2.35;;;1.45;;
67902;SDS011;54708;43.612;1.568;2024-02-21T14:36:13;1.13;;;1.02;;
67902;SDS011;54708;43.612;1.568;2024-02-21T14:38:40;2.42;;;1.83;;
67902;SDS011;54708;43.612;1.568;2024-02-21T14:41:06;2.58;;;1.60;;